Portada
METAR-TAF:

METAR-TAF

Aeroports :

Honiara, Guadalcanal, Illes Salomó

latitud: 09-25S, longitud: 160-03E, altitud: 8 m

Observació

L'informe es va fer fa 53 minuts, a les 16:00 UTC
Vent calma
Temperatura 24°C
Humitat 94%
Pressió 1007 hPa
Visibilitat 10 km o més
Escasses núvols a una alçada de 1400 ft

METAR: AGGH 081600Z 00000KT 9999 FEW014 24/23 Q1007

Hora: 03:53 (16:53 UTC)

Pronòstic

L'informe es va fer fa 5 hores i 43 minuts, a les 11:10 UTC
Pronòstic vàlid del 08 a les 12 UTC al 09 a les 12 UTC
Vent 10 kt del Sud-Est
Visibilitat 10 km o més
Núvols disperses a una alçada de 1600 ft
Probabilitat 30%
entre IN i TE UTC
Visibilitat: 1008 m
Cel ennuvolat a una alçada de 1500 ft
Escasses núvols a una alçada de 1600 ft, Cumulonimbus.

TAF: AGGH 081110Z 0812/0912 14010KT 9999 SCT016 PROB30 INTER 0812/0818 5000 TSSH BKN015 FEW016CB T 25 23 24 26 Q 1009 1007 1006 1008

Observacions i pronòstics meteorològics de més de 4000 aeroports (METAR i TAF).

Les estacions disponibles són els punts grocs i vermells al mapa.

Posi el ratolí al punt desitjat per veure el nom de l'estació.

Feu clic per veure les observacions i els pronòstics meteorològics.

Per canviar el mapa: feu clic els botons verds amb una creu de color negre per apropar; al botó verd amb un guió per allunyar la imatge; o en les fletxes verdes per a mapes adjacents.


METAR-TAF: